sensor_id;sensor_type;location;lat;lon;timestamp;P1;durP1;ratioP1;P2;durP2;ratioP2
47844;SDS011;33605;48.822;8.796;2023-06-22T00:00:36;8.57;;;6.83;;
47844;SDS011;33605;48.822;8.796;2023-06-22T00:03:04;7.97;;;6.43;;
47844;SDS011;33605;48.822;8.796;2023-06-22T00:05:30;7.30;;;6.60;;
47844;SDS011;33605;48.822;8.796;2023-06-22T00:07:56;8.70;;;7.13;;
47844;SDS011;33605;48.822;8.796;2023-06-22T00:10:22;7.87;;;7.17;;
47844;SDS011;33605;48.822;8.796;2023-06-22T00:12:47;7.70;;;6.37;;
47844;SDS011;33605;48.822;8.796;2023-06-22T00:15:13;8.23;;;6.53;;
47844;SDS011;33605;48.822;8.796;2023-06-22T00:17:39;9.40;;;6.83;;
47844;SDS011;33605;48.822;8.796;2023-06-22T00:20:05;9.37;;;6.70;;
47844;SDS011;33605;48.822;8.796;2023-06-22T00:22:32;6.77;;;6.10;;
47844;SDS011;33605;48.822;8.796;2023-06-22T00:25:03;6.87;;;6.23;;
47844;SDS011;33605;48.822;8.796;2023-06-22T00:27:29;8.93;;;7.87;;
47844;SDS011;33605;48.822;8.796;2023-06-22T00:29:55;9.70;;;8.20;;
47844;SDS011;33605;48.822;8.796;2023-06-22T00:32:21;16.33;;;7.73;;
47844;SDS011;33605;48.822;8.796;2023-06-22T00:34:47;8.27;;;7.47;;
47844;SDS011;33605;48.822;8.796;2023-06-22T00:37:13;7.70;;;6.90;;
47844;SDS011;33605;48.822;8.796;2023-06-22T00:39:39;8.40;;;6.80;;
47844;SDS011;33605;48.822;8.796;2023-06-22T00:42:05;8.87;;;7.97;;
47844;SDS011;33605;48.822;8.796;2023-06-22T00:44:31;9.77;;;8.33;;
47844;SDS011;33605;48.822;8.796;2023-06-22T00:46:57;8.37;;;7.47;;
47844;SDS011;33605;48.822;8.796;2023-06-22T00:49:25;8.53;;;7.03;;
47844;SDS011;33605;48.822;8.796;2023-06-22T00:51:51;7.60;;;6.53;;
47844;SDS011;33605;48.822;8.796;2023-06-22T00:54:17;11.37;;;8.03;;
47844;SDS011;33605;48.822;8.796;2023-06-22T00:56:49;8.83;;;7.80;;
47844;SDS011;33605;48.822;8.796;2023-06-22T00:59:17;8.40;;;7.60;;
47844;SDS011;33605;48.822;8.796;2023-06-22T01:01:44;8.33;;;7.03;;
47844;SDS011;33605;48.822;8.796;2023-06-22T01:04:10;8.63;;;7.73;;
47844;SDS011;33605;48.822;8.796;2023-06-22T01:06:38;9.63;;;7.87;;
47844;SDS011;33605;48.822;8.796;2023-06-22T01:09:15;9.90;;;8.80;;
47844;SDS011;33605;48.822;8.796;2023-06-22T01:11:41;10.17;;;8.50;;
47844;SDS011;33605;48.822;8.796;2023-06-22T01:16:55;9.03;;;7.70;;
47844;SDS011;33605;48.822;8.796;2023-06-22T01:19:27;8.13;;;7.30;;
47844;SDS011;33605;48.822;8.796;2023-06-22T01:21:55;9.23;;;8.03;;
47844;SDS011;33605;48.822;8.796;2023-06-22T01:24:31;8.43;;;7.63;;
47844;SDS011;33605;48.822;8.796;2023-06-22T01:29:26;9.10;;;8.00;;
47844;SDS011;33605;48.822;8.796;2023-06-22T01:31:53;9.13;;;7.90;;
47844;SDS011;33605;48.822;8.796;2023-06-22T01:34:19;9.07;;;8.10;;
47844;SDS011;33605;48.822;8.796;2023-06-22T01:36:46;9.37;;;7.60;;
47844;SDS011;33605;48.822;8.796;2023-06-22T01:39:12;8.23;;;7.43;;
47844;SDS011;33605;48.822;8.796;2023-06-22T01:41:39;8.27;;;7.37;;
47844;SDS011;33605;48.822;8.796;2023-06-22T01:44:07;10.20;;;8.53;;
47844;SDS011;33605;48.822;8.796;2023-06-22T01:46:34;9.50;;;7.63;;
47844;SDS011;33605;48.822;8.796;2023-06-22T01:49:01;8.00;;;7.20;;
47844;SDS011;33605;48.822;8.796;2023-06-22T01:51:27;7.80;;;7.00;;
47844;SDS011;33605;48.822;8.796;2023-06-22T01:53:53;7.83;;;6.83;;
47844;SDS011;33605;48.822;8.796;2023-06-22T01:56:19;8.53;;;7.50;;
47844;SDS011;33605;48.822;8.796;2023-06-22T01:58:50;8.43;;;7.63;;
47844;SDS011;33605;48.822;8.796;2023-06-22T02:01:17;7.17;;;6.43;;
47844;SDS011;33605;48.822;8.796;2023-06-22T02:03:52;10.33;;;7.80;;
47844;SDS011;33605;48.822;8.796;2023-06-22T02:06:27;14.03;;;8.00;;
47844;SDS011;33605;48.822;8.796;2023-06-22T02:09:00;8.63;;;7.70;;
47844;SDS011;33605;48.822;8.796;2023-06-22T02:11:27;9.33;;;7.27;;
47844;SDS011;33605;48.822;8.796;2023-06-22T02:13:54;11.13;;;7.53;;
47844;SDS011;33605;48.822;8.796;2023-06-22T02:16:21;8.07;;;7.27;;
47844;SDS011;33605;48.822;8.796;2023-06-22T02:18:48;9.37;;;7.53;;
47844;SDS011;33605;48.822;8.796;2023-06-22T02:21:20;8.03;;;7.23;;
47844;SDS011;33605;48.822;8.796;2023-06-22T02:23:46;10.20;;;8.17;;
47844;SDS011;33605;48.822;8.796;2023-06-22T02:26:12;9.60;;;7.60;;
47844;SDS011;33605;48.822;8.796;2023-06-22T02:28:38;7.97;;;7.17;;
47844;SDS011;33605;48.822;8.796;2023-06-22T02:31:04;9.50;;;7.63;;
47844;SDS011;33605;48.822;8.796;2023-06-22T02:33:30;8.40;;;7.60;;
47844;SDS011;33605;48.822;8.796;2023-06-22T02:35:56;9.73;;;8.43;;
47844;SDS011;33605;48.822;8.796;2023-06-22T02:38:22;9.90;;;8.30;;
47844;SDS011;33605;48.822;8.796;2023-06-22T02:40:49;9.83;;;7.83;;
47844;SDS011;33605;48.822;8.796;2023-06-22T02:43:15;8.60;;;7.80;;
47844;SDS011;33605;48.822;8.796;2023-06-22T02:45:41;8.47;;;7.63;;
47844;SDS011;33605;48.822;8.796;2023-06-22T02:48:07;8.70;;;7.67;;
47844;SDS011;33605;48.822;8.796;2023-06-22T02:50:33;7.60;;;6.90;;
47844;SDS011;33605;48.822;8.796;2023-06-22T02:52:59;10.73;;;7.63;;
47844;SDS011;33605;48.822;8.796;2023-06-22T02:55:25;9.67;;;8.03;;
47844;SDS011;33605;48.822;8.796;2023-06-22T02:57:51;11.40;;;7.53;;
47844;SDS011;33605;48.822;8.796;2023-06-22T03:00:18;8.13;;;7.43;;
47844;SDS011;33605;48.822;8.796;2023-06-22T03:02:44;8.87;;;7.97;;
47844;SDS011;33605;48.822;8.796;2023-06-22T03:05:11;10.50;;;8.10;;
47844;SDS011;33605;48.822;8.796;2023-06-22T03:07:38;9.40;;;7.53;;
47844;SDS011;33605;48.822;8.796;2023-06-22T03:10:04;7.90;;;6.90;;
47844;SDS011;33605;48.822;8.796;2023-06-22T03:12:30;7.63;;;6.93;;
47844;SDS011;33605;48.822;8.796;2023-06-22T03:14:56;9.50;;;8.27;;
47844;SDS011;33605;48.822;8.796;2023-06-22T03:17:23;12.63;;;8.00;;
47844;SDS011;33605;48.822;8.796;2023-06-22T03:19:49;8.90;;;7.80;;
47844;SDS011;33605;48.822;8.796;2023-06-22T03:22:15;9.27;;;8.37;;
47844;SDS011;33605;48.822;8.796;2023-06-22T03:24:40;7.70;;;6.67;;
47844;SDS011;33605;48.822;8.796;2023-06-22T03:27:06;7.90;;;7.13;;
47844;SDS011;33605;48.822;8.796;2023-06-22T03:29:32;13.60;;;8.07;;
47844;SDS011;33605;48.822;8.796;2023-06-22T03:31:59;9.30;;;7.80;;
47844;SDS011;33605;48.822;8.796;2023-06-22T03:34:25;10.07;;;6.97;;
47844;SDS011;33605;48.822;8.796;2023-06-22T03:36:51;10.03;;;6.80;;
47844;SDS011;33605;48.822;8.796;2023-06-22T03:39:17;9.03;;;7.30;;
47844;SDS011;33605;48.822;8.796;2023-06-22T03:41:43;9.87;;;7.53;;
47844;SDS011;33605;48.822;8.796;2023-06-22T03:44:09;9.33;;;8.30;;
47844;SDS011;33605;48.822;8.796;2023-06-22T03:46:37;9.17;;;8.23;;
47844;SDS011;33605;48.822;8.796;2023-06-22T03:49:03;10.90;;;7.80;;
47844;SDS011;33605;48.822;8.796;2023-06-22T03:51:30;8.33;;;7.23;;
47844;SDS011;33605;48.822;8.796;2023-06-22T03:53:56;9.90;;;8.00;;
47844;SDS011;33605;48.822;8.796;2023-06-22T03:56:22;9.10;;;7.93;;
47844;SDS011;33605;48.822;8.796;2023-06-22T03:58:48;10.77;;;7.80;;
47844;SDS011;33605;48.822;8.796;2023-06-22T04:01:14;9.50;;;8.47;;
47844;SDS011;33605;48.822;8.796;2023-06-22T04:03:42;12.73;;;9.30;;
47844;SDS011;33605;48.822;8.796;2023-06-22T04:06:08;12.40;;;9.33;;
47844;SDS011;33605;48.822;8.796;2023-06-22T04:08:34;12.40;;;8.20;;
47844;SDS011;33605;48.822;8.796;2023-06-22T04:11:00;11.00;;;9.07;;
47844;SDS011;33605;48.822;8.796;2023-06-22T04:13:26;10.90;;;9.60;;
47844;SDS011;33605;48.822;8.796;2023-06-22T04:15:52;11.43;;;9.30;;
47844;SDS011;33605;48.822;8.796;2023-06-22T04:18:18;10.63;;;7.77;;
47844;SDS011;33605;48.822;8.796;2023-06-22T04:20:44;13.90;;;7.67;;
47844;SDS011;33605;48.822;8.796;2023-06-22T04:23:11;13.73;;;8.67;;
47844;SDS011;33605;48.822;8.796;2023-06-22T04:25:37;10.43;;;9.00;;
47844;SDS011;33605;48.822;8.796;2023-06-22T04:28:03;10.53;;;8.57;;
47844;SDS011;33605;48.822;8.796;2023-06-22T04:30:29;13.63;;;8.43;;
47844;SDS011;33605;48.822;8.796;2023-06-22T04:32:56;12.07;;;8.80;;
47844;SDS011;33605;48.822;8.796;2023-06-22T04:35:23;9.23;;;8.23;;
47844;SDS011;33605;48.822;8.796;2023-06-22T04:37:49;10.07;;;9.07;;
47844;SDS011;33605;48.822;8.796;2023-06-22T04:40:19;10.07;;;9.03;;
47844;SDS011;33605;48.822;8.796;2023-06-22T04:42:45;9.77;;;8.50;;
47844;SDS011;33605;48.822;8.796;2023-06-22T04:45:17;9.43;;;8.53;;
47844;SDS011;33605;48.822;8.796;2023-06-22T04:47:43;10.97;;;8.63;;
47844;SDS011;33605;48.822;8.796;2023-06-22T04:50:11;11.23;;;8.40;;
47844;SDS011;33605;48.822;8.796;2023-06-22T04:52:37;9.97;;;8.40;;
47844;SDS011;33605;48.822;8.796;2023-06-22T04:55:03;11.13;;;9.93;;
47844;SDS011;33605;48.822;8.796;2023-06-22T04:57:29;11.63;;;9.07;;
47844;SDS011;33605;48.822;8.796;2023-06-22T04:59:59;11.53;;;9.33;;
47844;SDS011;33605;48.822;8.796;2023-06-22T05:02:37;12.00;;;10.60;;
47844;SDS011;33605;48.822;8.796;2023-06-22T05:05:03;11.83;;;9.93;;
47844;SDS011;33605;48.822;8.796;2023-06-22T05:07:32;11.50;;;9.30;;
47844;SDS011;33605;48.822;8.796;2023-06-22T05:09:58;10.50;;;8.50;;
47844;SDS011;33605;48.822;8.796;2023-06-22T05:12:24;10.10;;;8.67;;
47844;SDS011;33605;48.822;8.796;2023-06-22T05:14:50;10.00;;;7.90;;
47844;SDS011;33605;48.822;8.796;2023-06-22T05:17:16;9.70;;;8.57;;
47844;SDS011;33605;48.822;8.796;2023-06-22T05:19:44;11.53;;;9.93;;
47844;SDS011;33605;48.822;8.796;2023-06-22T05:22:13;10.47;;;9.27;;
47844;SDS011;33605;48.822;8.796;2023-06-22T05:24:39;12.60;;;9.93;;
47844;SDS011;33605;48.822;8.796;2023-06-22T05:27:05;12.60;;;9.00;;
47844;SDS011;33605;48.822;8.796;2023-06-22T05:29:31;7.70;;;6.90;;
47844;SDS011;33605;48.822;8.796;2023-06-22T05:31:57;9.93;;;8.93;;
47844;SDS011;33605;48.822;8.796;2023-06-22T05:34:24;9.97;;;8.50;;
47844;SDS011;33605;48.822;8.796;2023-06-22T05:36:50;10.60;;;9.27;;
47844;SDS011;33605;48.822;8.796;2023-06-22T05:39:15;9.30;;;8.17;;
47844;SDS011;33605;48.822;8.796;2023-06-22T05:41:42;12.07;;;8.33;;
47844;SDS011;33605;48.822;8.796;2023-06-22T05:44:10;9.10;;;8.10;;
47844;SDS011;33605;48.822;8.796;2023-06-22T05:46:37;9.60;;;8.60;;
47844;SDS011;33605;48.822;8.796;2023-06-22T05:49:03;9.90;;;8.63;;
47844;SDS011;33605;48.822;8.796;2023-06-22T05:51:29;11.47;;;9.80;;
47844;SDS011;33605;48.822;8.796;2023-06-22T05:53:54;9.77;;;8.77;;
47844;SDS011;33605;48.822;8.796;2023-06-22T05:56:20;9.23;;;8.37;;
47844;SDS011;33605;48.822;8.796;2023-06-22T05:58:46;9.77;;;8.63;;
47844;SDS011;33605;48.822;8.796;2023-06-22T06:01:12;12.10;;;8.83;;
47844;SDS011;33605;48.822;8.796;2023-06-22T06:03:40;10.20;;;9.20;;
47844;SDS011;33605;48.822;8.796;2023-06-22T06:06:06;12.37;;;9.33;;
47844;SDS011;33605;48.822;8.796;2023-06-22T06:08:32;10.87;;;8.50;;
47844;SDS011;33605;48.822;8.796;2023-06-22T06:10:58;11.60;;;8.97;;
47844;SDS011;33605;48.822;8.796;2023-06-22T06:13:24;14.10;;;9.33;;
47844;SDS011;33605;48.822;8.796;2023-06-22T06:15:50;8.90;;;7.40;;
47844;SDS011;33605;48.822;8.796;2023-06-22T06:18:16;13.80;;;9.30;;
47844;SDS011;33605;48.822;8.796;2023-06-22T06:20:42;11.93;;;8.87;;
47844;SDS011;33605;48.822;8.796;2023-06-22T06:23:08;9.70;;;8.70;;
47844;SDS011;33605;48.822;8.796;2023-06-22T06:25:34;9.47;;;8.57;;
47844;SDS011;33605;48.822;8.796;2023-06-22T06:28:00;11.77;;;8.17;;
47844;SDS011;33605;48.822;8.796;2023-06-22T06:30:26;10.93;;;7.70;;
47844;SDS011;33605;48.822;8.796;2023-06-22T06:32:52;10.77;;;8.53;;
47844;SDS011;33605;48.822;8.796;2023-06-22T06:35:18;8.97;;;7.40;;
47844;SDS011;33605;48.822;8.796;2023-06-22T06:37:45;11.47;;;8.87;;
47844;SDS011;33605;48.822;8.796;2023-06-22T06:40:12;10.37;;;7.53;;
47844;SDS011;33605;48.822;8.796;2023-06-22T06:42:38;8.53;;;7.40;;
47844;SDS011;33605;48.822;8.796;2023-06-22T06:45:06;11.93;;;8.10;;
47844;SDS011;33605;48.822;8.796;2023-06-22T06:47:33;11.37;;;7.80;;
47844;SDS011;33605;48.822;8.796;2023-06-22T06:49:59;9.73;;;6.90;;
47844;SDS011;33605;48.822;8.796;2023-06-22T06:52:25;8.13;;;7.33;;
47844;SDS011;33605;48.822;8.796;2023-06-22T06:54:51;10.60;;;6.13;;
47844;SDS011;33605;48.822;8.796;2023-06-22T06:57:17;7.27;;;6.50;;
47844;SDS011;33605;48.822;8.796;2023-06-22T06:59:45;8.33;;;7.43;;
47844;SDS011;33605;48.822;8.796;2023-06-22T07:02:11;9.20;;;7.73;;
47844;SDS011;33605;48.822;8.796;2023-06-22T07:04:37;8.53;;;6.83;;
47844;SDS011;33605;48.822;8.796;2023-06-22T07:07:03;10.70;;;7.17;;
47844;SDS011;33605;48.822;8.796;2023-06-22T07:09:29;7.00;;;6.30;;
47844;SDS011;33605;48.822;8.796;2023-06-22T07:11:54;10.67;;;7.20;;
47844;SDS011;33605;48.822;8.796;2023-06-22T07:14:20;8.90;;;7.27;;
47844;SDS011;33605;48.822;8.796;2023-06-22T07:16:46;7.73;;;6.17;;
47844;SDS011;33605;48.822;8.796;2023-06-22T07:19:12;8.77;;;6.30;;
47844;SDS011;33605;48.822;8.796;2023-06-22T07:21:38;6.93;;;5.37;;
47844;SDS011;33605;48.822;8.796;2023-06-22T07:24:04;9.33;;;6.93;;
47844;SDS011;33605;48.822;8.796;2023-06-22T07:26:31;8.90;;;6.80;;
47844;SDS011;33605;48.822;8.796;2023-06-22T07:28:57;14.13;;;7.40;;
47844;SDS011;33605;48.822;8.796;2023-06-22T07:31:26;6.80;;;6.10;;
47844;SDS011;33605;48.822;8.796;2023-06-22T07:33:52;8.97;;;5.93;;
47844;SDS011;33605;48.822;8.796;2023-06-22T07:36:18;14.17;;;6.33;;
47844;SDS011;33605;48.822;8.796;2023-06-22T07:38:44;14.00;;;6.30;;
47844;SDS011;33605;48.822;8.796;2023-06-22T07:41:11;8.80;;;6.23;;
47844;SDS011;33605;48.822;8.796;2023-06-22T07:43:37;8.03;;;5.70;;
47844;SDS011;33605;48.822;8.796;2023-06-22T07:46:03;10.47;;;7.33;;
47844;SDS011;33605;48.822;8.796;2023-06-22T07:48:29;8.63;;;5.87;;
47844;SDS011;33605;48.822;8.796;2023-06-22T07:50:55;6.87;;;6.10;;
47844;SDS011;33605;48.822;8.796;2023-06-22T07:53:21;8.60;;;6.70;;
47844;SDS011;33605;48.822;8.796;2023-06-22T07:55:48;8.10;;;5.97;;
47844;SDS011;33605;48.822;8.796;2023-06-22T07:58:14;10.33;;;6.00;;
47844;SDS011;33605;48.822;8.796;2023-06-22T08:00:40;7.20;;;5.63;;
47844;SDS011;33605;48.822;8.796;2023-06-22T08:03:06;9.40;;;5.93;;
47844;SDS011;33605;48.822;8.796;2023-06-22T08:05:32;9.63;;;6.20;;
47844;SDS011;33605;48.822;8.796;2023-06-22T08:07:58;6.13;;;5.37;;
47844;SDS011;33605;48.822;8.796;2023-06-22T08:10:25;8.47;;;6.20;;
47844;SDS011;33605;48.822;8.796;2023-06-22T08:12:51;8.23;;;6.17;;
47844;SDS011;33605;48.822;8.796;2023-06-22T08:15:17;10.20;;;5.93;;
47844;SDS011;33605;48.822;8.796;2023-06-22T08:17:44;8.20;;;5.83;;
47844;SDS011;33605;48.822;8.796;2023-06-22T08:20:10;8.67;;;5.40;;
47844;SDS011;33605;48.822;8.796;2023-06-22T08:22:37;11.90;;;6.27;;
47844;SDS011;33605;48.822;8.796;2023-06-22T08:25:03;8.47;;;5.73;;
47844;SDS011;33605;48.822;8.796;2023-06-22T08:27:30;8.00;;;5.80;;
47844;SDS011;33605;48.822;8.796;2023-06-22T08:29:57;8.57;;;5.60;;
47844;SDS011;33605;48.822;8.796;2023-06-22T08:32:24;9.93;;;5.90;;
47844;SDS011;33605;48.822;8.796;2023-06-22T08:34:51;9.40;;;6.20;;
47844;SDS011;33605;48.822;8.796;2023-06-22T08:37:17;10.70;;;6.43;;
47844;SDS011;33605;48.822;8.796;2023-06-22T08:39:43;6.30;;;5.13;;
47844;SDS011;33605;48.822;8.796;2023-06-22T08:42:09;14.53;;;6.30;;
47844;SDS011;33605;48.822;8.796;2023-06-22T08:44:35;10.70;;;5.63;;
47844;SDS011;33605;48.822;8.796;2023-06-22T08:47:01;10.53;;;6.03;;
47844;SDS011;33605;48.822;8.796;2023-06-22T08:49:28;8.23;;;5.67;;
47844;SDS011;33605;48.822;8.796;2023-06-22T08:51:54;13.23;;;6.23;;
47844;SDS011;33605;48.822;8.796;2023-06-22T08:54:21;8.23;;;5.30;;
47844;SDS011;33605;48.822;8.796;2023-06-22T08:56:47;6.97;;;5.57;;
47844;SDS011;33605;48.822;8.796;2023-06-22T08:59:13;5.93;;;5.20;;
47844;SDS011;33605;48.822;8.796;2023-06-22T09:01:39;8.57;;;6.27;;
47844;SDS011;33605;48.822;8.796;2023-06-22T09:04:05;6.83;;;5.80;;
47844;SDS011;33605;48.822;8.796;2023-06-22T09:06:34;6.93;;;5.40;;
47844;SDS011;33605;48.822;8.796;2023-06-22T09:09:00;7.17;;;5.50;;
47844;SDS011;33605;48.822;8.796;2023-06-22T09:11:26;10.83;;;6.27;;
47844;SDS011;33605;48.822;8.796;2023-06-22T09:13:52;9.73;;;6.10;;
47844;SDS011;33605;48.822;8.796;2023-06-22T09:16:18;5.90;;;4.77;;
47844;SDS011;33605;48.822;8.796;2023-06-22T09:18:47;9.50;;;5.63;;
47844;SDS011;33605;48.822;8.796;2023-06-22T09:21:13;10.30;;;6.20;;
47844;SDS011;33605;48.822;8.796;2023-06-22T09:23:40;10.20;;;6.27;;
47844;SDS011;33605;48.822;8.796;2023-06-22T09:26:06;7.67;;;5.40;;
47844;SDS011;33605;48.822;8.796;2023-06-22T09:28:32;6.80;;;5.43;;
47844;SDS011;33605;48.822;8.796;2023-06-22T09:30:58;7.53;;;5.70;;
47844;SDS011;33605;48.822;8.796;2023-06-22T09:33:25;7.03;;;5.90;;
47844;SDS011;33605;48.822;8.796;2023-06-22T09:35:51;9.90;;;6.13;;
47844;SDS011;33605;48.822;8.796;2023-06-22T09:38:17;12.20;;;6.43;;
47844;SDS011;33605;48.822;8.796;2023-06-22T09:40:43;8.33;;;6.57;;
47844;SDS011;33605;48.822;8.796;2023-06-22T09:43:09;15.17;;;6.10;;
47844;SDS011;33605;48.822;8.796;2023-06-22T09:45:35;10.60;;;6.20;;
47844;SDS011;33605;48.822;8.796;2023-06-22T09:48:01;9.17;;;6.40;;
47844;SDS011;33605;48.822;8.796;2023-06-22T09:50:27;15.50;;;6.43;;
47844;SDS011;33605;48.822;8.796;2023-06-22T09:52:53;11.73;;;5.77;;
47844;SDS011;33605;48.822;8.796;2023-06-22T09:55:20;8.47;;;5.90;;
47844;SDS011;33605;48.822;8.796;2023-06-22T09:57:46;10.77;;;6.17;;
47844;SDS011;33605;48.822;8.796;2023-06-22T10:00:12;11.10;;;6.20;;
47844;SDS011;33605;48.822;8.796;2023-06-22T10:02:40;15.00;;;6.60;;
47844;SDS011;33605;48.822;8.796;2023-06-22T10:05:06;9.50;;;5.87;;
47844;SDS011;33605;48.822;8.796;2023-06-22T10:07:32;11.00;;;6.20;;
47844;SDS011;33605;48.822;8.796;2023-06-22T10:09:59;8.20;;;5.97;;
47844;SDS011;33605;48.822;8.796;2023-06-22T10:12:26;8.30;;;5.87;;
47844;SDS011;33605;48.822;8.796;2023-06-22T10:14:53;10.00;;;5.73;;
47844;SDS011;33605;48.822;8.796;2023-06-22T10:17:18;9.07;;;6.13;;
47844;SDS011;33605;48.822;8.796;2023-06-22T10:19:44;9.63;;;7.00;;
47844;SDS011;33605;48.822;8.796;2023-06-22T10:22:10;8.93;;;6.70;;
47844;SDS011;33605;48.822;8.796;2023-06-22T10:24:36;7.80;;;5.60;;
47844;SDS011;33605;48.822;8.796;2023-06-22T10:27:09;11.47;;;6.30;;
47844;SDS011;33605;48.822;8.796;2023-06-22T10:29:35;8.23;;;7.07;;
47844;SDS011;33605;48.822;8.796;2023-06-22T10:32:01;11.70;;;5.87;;
47844;SDS011;33605;48.822;8.796;2023-06-22T10:34:27;7.60;;;5.80;;
47844;SDS011;33605;48.822;8.796;2023-06-22T10:36:53;10.90;;;6.60;;
47844;SDS011;33605;48.822;8.796;2023-06-22T10:39:19;9.63;;;6.03;;
47844;SDS011;33605;48.822;8.796;2023-06-22T10:41:45;6.80;;;5.53;;
47844;SDS011;33605;48.822;8.796;2023-06-22T10:44:11;9.40;;;5.83;;
47844;SDS011;33605;48.822;8.796;2023-06-22T10:46:37;11.60;;;6.60;;
47844;SDS011;33605;48.822;8.796;2023-06-22T10:49:03;14.43;;;6.10;;
47844;SDS011;33605;48.822;8.796;2023-06-22T10:51:29;8.80;;;6.37;;
47844;SDS011;33605;48.822;8.796;2023-06-22T10:53:56;6.70;;;6.07;;
47844;SDS011;33605;48.822;8.796;2023-06-22T10:56:22;9.10;;;5.00;;
47844;SDS011;33605;48.822;8.796;2023-06-22T10:58:48;9.37;;;6.57;;
47844;SDS011;33605;48.822;8.796;2023-06-22T11:01:14;14.80;;;6.17;;
47844;SDS011;33605;48.822;8.796;2023-06-22T11:03:40;8.90;;;5.90;;
47844;SDS011;33605;48.822;8.796;2023-06-22T11:06:06;8.80;;;6.00;;
47844;SDS011;33605;48.822;8.796;2023-06-22T11:08:32;7.17;;;6.20;;
47844;SDS011;33605;48.822;8.796;2023-06-22T11:10:58;9.30;;;6.00;;
47844;SDS011;33605;48.822;8.796;2023-06-22T11:13:24;8.13;;;5.30;;
47844;SDS011;33605;48.822;8.796;2023-06-22T11:15:50;12.17;;;5.90;;
47844;SDS011;33605;48.822;8.796;2023-06-22T11:18:16;10.10;;;6.03;;
47844;SDS011;33605;48.822;8.796;2023-06-22T11:20:42;10.50;;;6.43;;
47844;SDS011;33605;48.822;8.796;2023-06-22T11:23:08;6.77;;;5.33;;
47844;SDS011;33605;48.822;8.796;2023-06-22T11:25:34;6.93;;;5.70;;
47844;SDS011;33605;48.822;8.796;2023-06-22T11:28:01;8.60;;;5.70;;
47844;SDS011;33605;48.822;8.796;2023-06-22T11:30:27;8.80;;;5.40;;
47844;SDS011;33605;48.822;8.796;2023-06-22T11:32:53;8.67;;;5.50;;
47844;SDS011;33605;48.822;8.796;2023-06-22T11:35:19;13.33;;;7.37;;
47844;SDS011;33605;48.822;8.796;2023-06-22T11:37:45;8.60;;;6.70;;
47844;SDS011;33605;48.822;8.796;2023-06-22T11:40:11;8.80;;;6.17;;
47844;SDS011;33605;48.822;8.796;2023-06-22T11:42:37;5.93;;;5.20;;
47844;SDS011;33605;48.822;8.796;2023-06-22T11:45:04;8.83;;;6.10;;
47844;SDS011;33605;48.822;8.796;2023-06-22T11:47:30;8.63;;;5.60;;
47844;SDS011;33605;48.822;8.796;2023-06-22T11:49:56;10.40;;;6.10;;
47844;SDS011;33605;48.822;8.796;2023-06-22T11:52:22;9.33;;;5.77;;
47844;SDS011;33605;48.822;8.796;2023-06-22T11:54:48;11.17;;;6.03;;
47844;SDS011;33605;48.822;8.796;2023-06-22T11:57:14;9.80;;;5.67;;
47844;SDS011;33605;48.822;8.796;2023-06-22T11:59:40;10.43;;;5.33;;
47844;SDS011;33605;48.822;8.796;2023-06-22T12:02:06;11.43;;;5.70;;
47844;SDS011;33605;48.822;8.796;2023-06-22T12:04:32;12.30;;;5.50;;
47844;SDS011;33605;48.822;8.796;2023-06-22T12:06:58;9.60;;;5.90;;
47844;SDS011;33605;48.822;8.796;2023-06-22T12:09:24;13.50;;;5.97;;
47844;SDS011;33605;48.822;8.796;2023-06-22T12:11:50;9.63;;;6.00;;
47844;SDS011;33605;48.822;8.796;2023-06-22T12:14:16;11.60;;;5.47;;
47844;SDS011;33605;48.822;8.796;2023-06-22T12:16:42;6.47;;;5.30;;
47844;SDS011;33605;48.822;8.796;2023-06-22T12:19:09;8.27;;;5.43;;
47844;SDS011;33605;48.822;8.796;2023-06-22T12:21:35;6.30;;;5.30;;
47844;SDS011;33605;48.822;8.796;2023-06-22T12:24:01;8.00;;;6.20;;
47844;SDS011;33605;48.822;8.796;2023-06-22T12:26:26;10.47;;;5.50;;
47844;SDS011;33605;48.822;8.796;2023-06-22T12:28:52;8.57;;;6.03;;
47844;SDS011;33605;48.822;8.796;2023-06-22T12:31:18;11.50;;;6.43;;
47844;SDS011;33605;48.822;8.796;2023-06-22T12:33:44;7.93;;;6.10;;
47844;SDS011;33605;48.822;8.796;2023-06-22T12:36:10;9.40;;;6.27;;
47844;SDS011;33605;48.822;8.796;2023-06-22T12:38:36;11.70;;;5.13;;
47844;SDS011;33605;48.822;8.796;2023-06-22T12:41:02;7.17;;;5.47;;
47844;SDS011;33605;48.822;8.796;2023-06-22T12:43:28;9.43;;;5.87;;
47844;SDS011;33605;48.822;8.796;2023-06-22T12:45:54;9.00;;;5.80;;
47844;SDS011;33605;48.822;8.796;2023-06-22T12:48:21;8.53;;;6.00;;
47844;SDS011;33605;48.822;8.796;2023-06-22T12:50:47;9.00;;;6.27;;
47844;SDS011;33605;48.822;8.796;2023-06-22T12:53:13;10.80;;;6.27;;
47844;SDS011;33605;48.822;8.796;2023-06-22T12:55:39;7.23;;;5.67;;
47844;SDS011;33605;48.822;8.796;2023-06-22T12:58:05;7.43;;;6.00;;
47844;SDS011;33605;48.822;8.796;2023-06-22T13:00:31;9.30;;;6.20;;
47844;SDS011;33605;48.822;8.796;2023-06-22T13:02:57;5.93;;;5.33;;
47844;SDS011;33605;48.822;8.796;2023-06-22T13:05:23;7.60;;;5.60;;
47844;SDS011;33605;48.822;8.796;2023-06-22T13:07:49;8.03;;;5.90;;
47844;SDS011;33605;48.822;8.796;2023-06-22T13:10:15;9.13;;;5.63;;
47844;SDS011;33605;48.822;8.796;2023-06-22T13:12:41;8.23;;;6.00;;
47844;SDS011;33605;48.822;8.796;2023-06-22T13:15:07;10.67;;;6.23;;
47844;SDS011;33605;48.822;8.796;2023-06-22T13:17:33;20.93;;;5.40;;
47844;SDS011;33605;48.822;8.796;2023-06-22T13:19:59;11.67;;;5.77;;
47844;SDS011;33605;48.822;8.796;2023-06-22T13:22:34;12.00;;;6.33;;
47844;SDS011;33605;48.822;8.796;2023-06-22T13:25:08;11.70;;;5.50;;
47844;SDS011;33605;48.822;8.796;2023-06-22T13:27:41;7.60;;;6.30;;
47844;SDS011;33605;48.822;8.796;2023-06-22T13:30:08;8.43;;;5.73;;
47844;SDS011;33605;48.822;8.796;2023-06-22T13:32:34;7.00;;;5.67;;
47844;SDS011;33605;48.822;8.796;2023-06-22T13:35:00;10.30;;;7.03;;
47844;SDS011;33605;48.822;8.796;2023-06-22T13:37:26;10.77;;;6.43;;
47844;SDS011;33605;48.822;8.796;2023-06-22T13:39:52;7.77;;;6.13;;
47844;SDS011;33605;48.822;8.796;2023-06-22T13:42:19;7.97;;;6.00;;
47844;SDS011;33605;48.822;8.796;2023-06-22T13:44:45;6.40;;;5.07;;
47844;SDS011;33605;48.822;8.796;2023-06-22T13:47:11;7.00;;;4.07;;
47844;SDS011;33605;48.822;8.796;2023-06-22T13:49:37;14.37;;;4.60;;
47844;SDS011;33605;48.822;8.796;2023-06-22T13:52:03;6.57;;;3.93;;
47844;SDS011;33605;48.822;8.796;2023-06-22T13:54:29;13.17;;;5.10;;
47844;SDS011;33605;48.822;8.796;2023-06-22T13:56:55;12.40;;;5.43;;
47844;SDS011;33605;48.822;8.796;2023-06-22T13:59:21;6.63;;;4.33;;
47844;SDS011;33605;48.822;8.796;2023-06-22T14:01:47;9.63;;;4.50;;
47844;SDS011;33605;48.822;8.796;2023-06-22T14:04:13;13.83;;;4.70;;
47844;SDS011;33605;48.822;8.796;2023-06-22T14:06:39;12.53;;;4.30;;
47844;SDS011;33605;48.822;8.796;2023-06-22T14:09:05;13.20;;;4.23;;
47844;SDS011;33605;48.822;8.796;2023-06-22T14:11:31;6.30;;;4.10;;
47844;SDS011;33605;48.822;8.796;2023-06-22T14:13:57;7.90;;;4.20;;
47844;SDS011;33605;48.822;8.796;2023-06-22T14:16:23;8.30;;;4.47;;
47844;SDS011;33605;48.822;8.796;2023-06-22T14:18:49;13.27;;;4.00;;
47844;SDS011;33605;48.822;8.796;2023-06-22T14:21:15;9.10;;;4.27;;
47844;SDS011;33605;48.822;8.796;2023-06-22T14:23:41;11.87;;;4.00;;
47844;SDS011;33605;48.822;8.796;2023-06-22T14:26:12;6.40;;;3.93;;
47844;SDS011;33605;48.822;8.796;2023-06-22T14:28:38;12.47;;;4.63;;
47844;SDS011;33605;48.822;8.796;2023-06-22T14:31:04;12.57;;;4.70;;
47844;SDS011;33605;48.822;8.796;2023-06-22T14:33:30;9.17;;;4.00;;
47844;SDS011;33605;48.822;8.796;2023-06-22T14:35:56;6.53;;;3.80;;
47844;SDS011;33605;48.822;8.796;2023-06-22T14:38:21;9.53;;;4.70;;
47844;SDS011;33605;48.822;8.796;2023-06-22T14:40:47;8.87;;;4.23;;
47844;SDS011;33605;48.822;8.796;2023-06-22T14:43:13;13.90;;;3.90;;